sensor_id;sensor_type;location;lat;lon;timestamp;P1;durP1;ratioP1;P2;durP2;ratioP2
75171;SDS011;63750;52.418;20.742;2024-03-06T00:00:40;48.90;;;26.50;;
75171;SDS011;63750;52.418;20.742;2024-03-06T00:03:08;52.30;;;29.20;;
75171;SDS011;63750;52.418;20.742;2024-03-06T00:05:36;53.30;;;29.50;;
75171;SDS011;63750;52.418;20.742;2024-03-06T00:08:05;49.60;;;28.20;;
75171;SDS011;63750;52.418;20.742;2024-03-06T00:10:33;49.30;;;28.50;;
75171;SDS011;63750;52.418;20.742;2024-03-06T00:13:01;51.70;;;29.40;;
75171;SDS011;63750;52.418;20.742;2024-03-06T00:15:30;49.40;;;27.90;;
75171;SDS011;63750;52.418;20.742;2024-03-06T00:17:58;51.30;;;27.90;;
75171;SDS011;63750;52.418;20.742;2024-03-06T00:20:26;50.30;;;27.80;;
75171;SDS011;63750;52.418;20.742;2024-03-06T00:22:54;49.90;;;27.00;;
75171;SDS011;63750;52.418;20.742;2024-03-06T00:25:22;52.80;;;28.50;;
75171;SDS011;63750;52.418;20.742;2024-03-06T00:27:50;48.20;;;28.80;;
75171;SDS011;63750;52.418;20.742;2024-03-06T00:30:21;49.60;;;27.40;;
75171;SDS011;63750;52.418;20.742;2024-03-06T00:32:49;47.50;;;27.50;;
75171;SDS011;63750;52.418;20.742;2024-03-06T00:35:18;46.10;;;27.20;;
75171;SDS011;63750;52.418;20.742;2024-03-06T00:37:46;47.60;;;27.90;;
75171;SDS011;63750;52.418;20.742;2024-03-06T00:40:14;48.60;;;26.80;;
75171;SDS011;63750;52.418;20.742;2024-03-06T00:42:42;48.20;;;29.00;;
75171;SDS011;63750;52.418;20.742;2024-03-06T00:45:12;44.40;;;27.00;;
75171;SDS011;63750;52.418;20.742;2024-03-06T00:47:40;49.10;;;29.00;;
75171;SDS011;63750;52.418;20.742;2024-03-06T00:50:09;42.40;;;26.40;;
75171;SDS011;63750;52.418;20.742;2024-03-06T00:52:37;45.00;;;29.00;;
75171;SDS011;63750;52.418;20.742;2024-03-06T00:55:06;48.00;;;28.60;;
75171;SDS011;63750;52.418;20.742;2024-03-06T00:57:35;45.90;;;29.10;;
75171;SDS011;63750;52.418;20.742;2024-03-06T01:00:03;48.10;;;29.40;;
75171;SDS011;63750;52.418;20.742;2024-03-06T01:02:32;49.70;;;30.00;;
75171;SDS011;63750;52.418;20.742;2024-03-06T01:05:01;48.80;;;29.30;;
75171;SDS011;63750;52.418;20.742;2024-03-06T01:07:30;47.00;;;28.40;;
75171;SDS011;63750;52.418;20.742;2024-03-06T01:09:58;52.20;;;30.00;;
75171;SDS011;63750;52.418;20.742;2024-03-06T01:12:26;40.40;;;27.40;;
75171;SDS011;63750;52.418;20.742;2024-03-06T01:14:55;47.60;;;29.30;;
75171;SDS011;63750;52.418;20.742;2024-03-06T01:17:23;47.00;;;28.50;;
75171;SDS011;63750;52.418;20.742;2024-03-06T01:19:52;44.00;;;27.70;;
75171;SDS011;63750;52.418;20.742;2024-03-06T01:22:20;45.50;;;27.50;;
75171;SDS011;63750;52.418;20.742;2024-03-06T01:24:48;43.40;;;28.90;;
75171;SDS011;63750;52.418;20.742;2024-03-06T01:27:16;42.70;;;26.60;;
75171;SDS011;63750;52.418;20.742;2024-03-06T01:29:44;39.90;;;26.50;;
75171;SDS011;63750;52.418;20.742;2024-03-06T01:32:12;39.40;;;26.30;;
75171;SDS011;63750;52.418;20.742;2024-03-06T01:34:40;39.40;;;26.00;;
75171;SDS011;63750;52.418;20.742;2024-03-06T01:37:09;43.60;;;26.80;;
75171;SDS011;63750;52.418;20.742;2024-03-06T01:39:37;40.30;;;26.00;;
75171;SDS011;63750;52.418;20.742;2024-03-06T01:42:05;37.50;;;24.30;;
75171;SDS011;63750;52.418;20.742;2024-03-06T01:44:33;37.20;;;23.10;;
75171;SDS011;63750;52.418;20.742;2024-03-06T01:47:01;36.10;;;22.60;;
75171;SDS011;63750;52.418;20.742;2024-03-06T01:49:29;33.90;;;20.60;;
75171;SDS011;63750;52.418;20.742;2024-03-06T01:51:59;30.30;;;20.10;;
75171;SDS011;63750;52.418;20.742;2024-03-06T01:54:28;31.30;;;20.20;;
75171;SDS011;63750;52.418;20.742;2024-03-06T01:56:56;29.50;;;20.00;;
75171;SDS011;63750;52.418;20.742;2024-03-06T01:59:26;29.80;;;19.50;;
75171;SDS011;63750;52.418;20.742;2024-03-06T02:01:54;31.10;;;20.40;;
75171;SDS011;63750;52.418;20.742;2024-03-06T02:04:23;28.20;;;19.60;;
75171;SDS011;63750;52.418;20.742;2024-03-06T02:06:51;27.30;;;18.10;;
75171;SDS011;63750;52.418;20.742;2024-03-06T02:09:20;29.50;;;19.50;;
75171;SDS011;63750;52.418;20.742;2024-03-06T02:11:49;31.40;;;18.60;;
75171;SDS011;63750;52.418;20.742;2024-03-06T02:14:17;28.80;;;17.90;;
75171;SDS011;63750;52.418;20.742;2024-03-06T02:16:45;28.60;;;18.60;;
75171;SDS011;63750;52.418;20.742;2024-03-06T02:19:13;29.60;;;19.00;;
75171;SDS011;63750;52.418;20.742;2024-03-06T02:21:42;26.90;;;17.70;;
75171;SDS011;63750;52.418;20.742;2024-03-06T02:24:10;26.90;;;18.00;;
75171;SDS011;63750;52.418;20.742;2024-03-06T02:26:41;30.20;;;19.30;;
75171;SDS011;63750;52.418;20.742;2024-03-06T02:29:09;28.20;;;18.10;;
75171;SDS011;63750;52.418;20.742;2024-03-06T02:31:37;29.00;;;18.40;;
75171;SDS011;63750;52.418;20.742;2024-03-06T02:34:05;26.80;;;18.00;;
75171;SDS011;63750;52.418;20.742;2024-03-06T02:36:34;27.50;;;17.80;;
75171;SDS011;63750;52.418;20.742;2024-03-06T02:39:02;27.00;;;17.80;;
75171;SDS011;63750;52.418;20.742;2024-03-06T02:41:30;28.40;;;18.50;;
75171;SDS011;63750;52.418;20.742;2024-03-06T02:43:58;26.40;;;18.50;;
75171;SDS011;63750;52.418;20.742;2024-03-06T02:46:26;29.00;;;17.40;;
75171;SDS011;63750;52.418;20.742;2024-03-06T02:48:55;30.50;;;19.50;;
75171;SDS011;63750;52.418;20.742;2024-03-06T02:51:23;31.50;;;18.70;;
75171;SDS011;63750;52.418;20.742;2024-03-06T02:53:51;27.00;;;18.40;;
75171;SDS011;63750;52.418;20.742;2024-03-06T02:56:19;25.70;;;17.80;;
75171;SDS011;63750;52.418;20.742;2024-03-06T02:58:47;27.60;;;18.80;;
75171;SDS011;63750;52.418;20.742;2024-03-06T03:01:15;29.20;;;18.50;;
75171;SDS011;63750;52.418;20.742;2024-03-06T03:03:44;29.70;;;18.60;;
75171;SDS011;63750;52.418;20.742;2024-03-06T03:06:12;28.30;;;18.50;;
75171;SDS011;63750;52.418;20.742;2024-03-06T03:08:40;29.90;;;18.50;;
75171;SDS011;63750;52.418;20.742;2024-03-06T03:11:08;29.40;;;18.30;;
75171;SDS011;63750;52.418;20.742;2024-03-06T03:13:36;30.20;;;17.80;;
75171;SDS011;63750;52.418;20.742;2024-03-06T03:16:05;26.90;;;18.00;;
75171;SDS011;63750;52.418;20.742;2024-03-06T03:18:33;27.20;;;18.00;;
75171;SDS011;63750;52.418;20.742;2024-03-06T03:21:01;28.70;;;18.70;;
75171;SDS011;63750;52.418;20.742;2024-03-06T03:23:34;30.90;;;18.90;;
75171;SDS011;63750;52.418;20.742;2024-03-06T03:26:03;32.40;;;18.90;;
75171;SDS011;63750;52.418;20.742;2024-03-06T03:28:32;30.10;;;18.90;;
75171;SDS011;63750;52.418;20.742;2024-03-06T03:31:00;27.90;;;17.60;;
75171;SDS011;63750;52.418;20.742;2024-03-06T03:33:28;27.20;;;18.10;;
75171;SDS011;63750;52.418;20.742;2024-03-06T03:35:56;28.00;;;18.60;;
75171;SDS011;63750;52.418;20.742;2024-03-06T03:38:24;28.80;;;18.60;;
75171;SDS011;63750;52.418;20.742;2024-03-06T03:40:52;31.50;;;18.50;;
75171;SDS011;63750;52.418;20.742;2024-03-06T03:43:20;27.60;;;17.70;;
75171;SDS011;63750;52.418;20.742;2024-03-06T03:45:48;26.50;;;17.30;;
75171;SDS011;63750;52.418;20.742;2024-03-06T03:48:16;27.40;;;17.90;;
75171;SDS011;63750;52.418;20.742;2024-03-06T03:50:45;26.60;;;16.90;;
75171;SDS011;63750;52.418;20.742;2024-03-06T03:53:13;26.60;;;17.10;;
75171;SDS011;63750;52.418;20.742;2024-03-06T03:55:41;25.80;;;16.70;;
75171;SDS011;63750;52.418;20.742;2024-03-06T03:58:09;28.00;;;16.50;;
75171;SDS011;63750;52.418;20.742;2024-03-06T04:00:37;28.40;;;17.50;;
75171;SDS011;63750;52.418;20.742;2024-03-06T04:03:05;25.10;;;16.70;;
75171;SDS011;63750;52.418;20.742;2024-03-06T04:05:34;27.60;;;16.60;;
75171;SDS011;63750;52.418;20.742;2024-03-06T04:08:02;26.40;;;16.80;;
75171;SDS011;63750;52.418;20.742;2024-03-06T04:10:31;29.80;;;16.60;;
75171;SDS011;63750;52.418;20.742;2024-03-06T04:12:59;24.90;;;16.90;;
75171;SDS011;63750;52.418;20.742;2024-03-06T04:15:27;26.70;;;17.20;;
75171;SDS011;63750;52.418;20.742;2024-03-06T04:17:56;22.70;;;15.90;;
75171;SDS011;63750;52.418;20.742;2024-03-06T04:20:24;23.50;;;16.00;;
75171;SDS011;63750;52.418;20.742;2024-03-06T04:22:52;30.20;;;16.20;;
75171;SDS011;63750;52.418;20.742;2024-03-06T04:25:20;26.20;;;16.40;;
75171;SDS011;63750;52.418;20.742;2024-03-06T04:27:49;25.50;;;16.50;;
75171;SDS011;63750;52.418;20.742;2024-03-06T04:30:17;25.30;;;16.40;;
75171;SDS011;63750;52.418;20.742;2024-03-06T04:32:45;25.90;;;16.70;;
75171;SDS011;63750;52.418;20.742;2024-03-06T04:35:13;24.30;;;16.60;;
75171;SDS011;63750;52.418;20.742;2024-03-06T04:37:41;25.70;;;16.70;;
75171;SDS011;63750;52.418;20.742;2024-03-06T04:40:10;25.50;;;15.90;;
75171;SDS011;63750;52.418;20.742;2024-03-06T04:42:38;25.30;;;15.90;;
75171;SDS011;63750;52.418;20.742;2024-03-06T04:45:10;24.60;;;16.40;;
75171;SDS011;63750;52.418;20.742;2024-03-06T04:47:39;24.70;;;15.80;;
75171;SDS011;63750;52.418;20.742;2024-03-06T04:50:09;23.30;;;15.30;;
75171;SDS011;63750;52.418;20.742;2024-03-06T04:52:38;27.60;;;16.80;;
75171;SDS011;63750;52.418;20.742;2024-03-06T04:55:08;25.60;;;16.70;;
75171;SDS011;63750;52.418;20.742;2024-03-06T04:57:37;21.90;;;14.70;;
75171;SDS011;63750;52.418;20.742;2024-03-06T05:00:06;24.40;;;14.70;;
75171;SDS011;63750;52.418;20.742;2024-03-06T05:02:36;25.70;;;15.90;;
75171;SDS011;63750;52.418;20.742;2024-03-06T05:05:05;24.70;;;16.20;;
75171;SDS011;63750;52.418;20.742;2024-03-06T05:07:34;22.30;;;14.90;;
75171;SDS011;63750;52.418;20.742;2024-03-06T05:10:02;24.10;;;14.50;;
75171;SDS011;63750;52.418;20.742;2024-03-06T05:12:31;24.70;;;15.20;;
75171;SDS011;63750;52.418;20.742;2024-03-06T05:14:59;19.60;;;14.50;;
75171;SDS011;63750;52.418;20.742;2024-03-06T05:17:28;20.80;;;13.10;;
75171;SDS011;63750;52.418;20.742;2024-03-06T05:19:56;20.90;;;13.30;;
75171;SDS011;63750;52.418;20.742;2024-03-06T05:22:24;20.50;;;13.50;;
75171;SDS011;63750;52.418;20.742;2024-03-06T05:24:52;20.10;;;13.40;;
75171;SDS011;63750;52.418;20.742;2024-03-06T05:27:20;22.90;;;13.50;;
75171;SDS011;63750;52.418;20.742;2024-03-06T05:29:49;18.90;;;12.70;;
75171;SDS011;63750;52.418;20.742;2024-03-06T05:32:17;21.60;;;12.60;;
75171;SDS011;63750;52.418;20.742;2024-03-06T05:34:45;18.80;;;12.40;;
75171;SDS011;63750;52.418;20.742;2024-03-06T05:37:13;17.00;;;11.90;;
75171;SDS011;63750;52.418;20.742;2024-03-06T05:39:41;22.80;;;13.90;;
75171;SDS011;63750;52.418;20.742;2024-03-06T05:42:10;17.30;;;11.80;;
75171;SDS011;63750;52.418;20.742;2024-03-06T05:44:38;18.10;;;12.90;;
75171;SDS011;63750;52.418;20.742;2024-03-06T05:47:06;19.80;;;12.60;;
75171;SDS011;63750;52.418;20.742;2024-03-06T05:49:35;16.80;;;11.60;;
75171;SDS011;63750;52.418;20.742;2024-03-06T05:52:03;19.30;;;12.90;;
75171;SDS011;63750;52.418;20.742;2024-03-06T05:54:31;19.40;;;11.80;;
75171;SDS011;63750;52.418;20.742;2024-03-06T05:56:59;20.40;;;12.80;;
75171;SDS011;63750;52.418;20.742;2024-03-06T05:59:27;20.50;;;12.50;;
75171;SDS011;63750;52.418;20.742;2024-03-06T06:01:56;18.80;;;12.30;;
75171;SDS011;63750;52.418;20.742;2024-03-06T06:04:24;17.20;;;12.00;;
75171;SDS011;63750;52.418;20.742;2024-03-06T06:06:52;19.80;;;12.60;;
75171;SDS011;63750;52.418;20.742;2024-03-06T06:09:20;17.10;;;11.40;;
75171;SDS011;63750;52.418;20.742;2024-03-06T06:11:48;23.80;;;15.00;;
75171;SDS011;63750;52.418;20.742;2024-03-06T06:14:16;20.80;;;12.80;;
75171;SDS011;63750;52.418;20.742;2024-03-06T06:16:45;23.20;;;13.40;;
75171;SDS011;63750;52.418;20.742;2024-03-06T06:19:13;21.10;;;13.60;;
75171;SDS011;63750;52.418;20.742;2024-03-06T06:21:41;22.00;;;12.90;;
75171;SDS011;63750;52.418;20.742;2024-03-06T06:24:09;22.20;;;13.80;;
75171;SDS011;63750;52.418;20.742;2024-03-06T06:26:37;22.30;;;13.80;;
75171;SDS011;63750;52.418;20.742;2024-03-06T06:29:05;22.50;;;14.40;;
75171;SDS011;63750;52.418;20.742;2024-03-06T06:31:33;19.80;;;12.60;;
75171;SDS011;63750;52.418;20.742;2024-03-06T06:34:02;18.60;;;12.40;;
75171;SDS011;63750;52.418;20.742;2024-03-06T06:36:30;17.20;;;12.10;;
75171;SDS011;63750;52.418;20.742;2024-03-06T06:38:58;18.20;;;11.00;;
75171;SDS011;63750;52.418;20.742;2024-03-06T06:41:26;18.30;;;11.60;;
75171;SDS011;63750;52.418;20.742;2024-03-06T06:43:54;23.30;;;13.60;;
75171;SDS011;63750;52.418;20.742;2024-03-06T06:46:22;27.70;;;17.30;;
75171;SDS011;63750;52.418;20.742;2024-03-06T06:48:50;28.60;;;16.40;;
75171;SDS011;63750;52.418;20.742;2024-03-06T06:51:18;28.00;;;16.90;;
75171;SDS011;63750;52.418;20.742;2024-03-06T06:53:46;21.60;;;12.50;;
75171;SDS011;63750;52.418;20.742;2024-03-06T06:56:15;21.40;;;14.90;;
75171;SDS011;63750;52.418;20.742;2024-03-06T06:58:43;18.50;;;12.60;;
75171;SDS011;63750;52.418;20.742;2024-03-06T07:01:11;20.80;;;13.50;;
75171;SDS011;63750;52.418;20.742;2024-03-06T07:03:39;22.10;;;13.60;;
75171;SDS011;63750;52.418;20.742;2024-03-06T07:06:08;23.50;;;13.50;;
75171;SDS011;63750;52.418;20.742;2024-03-06T07:08:36;18.50;;;12.30;;
75171;SDS011;63750;52.418;20.742;2024-03-06T07:11:04;22.30;;;15.10;;
75171;SDS011;63750;52.418;20.742;2024-03-06T07:13:32;20.80;;;13.10;;
75171;SDS011;63750;52.418;20.742;2024-03-06T07:16:02;22.00;;;12.40;;
75171;SDS011;63750;52.418;20.742;2024-03-06T07:18:30;19.40;;;13.40;;
75171;SDS011;63750;52.418;20.742;2024-03-06T07:20:58;23.30;;;14.50;;
75171;SDS011;63750;52.418;20.742;2024-03-06T07:23:27;19.00;;;12.60;;
75171;SDS011;63750;52.418;20.742;2024-03-06T07:25:55;20.10;;;13.20;;
75171;SDS011;63750;52.418;20.742;2024-03-06T07:28:23;18.30;;;12.90;;
75171;SDS011;63750;52.418;20.742;2024-03-06T07:30:51;21.50;;;13.00;;
75171;SDS011;63750;52.418;20.742;2024-03-06T07:33:19;23.00;;;13.50;;
75171;SDS011;63750;52.418;20.742;2024-03-06T07:35:47;17.30;;;12.40;;
75171;SDS011;63750;52.418;20.742;2024-03-06T07:38:15;20.50;;;13.70;;
75171;SDS011;63750;52.418;20.742;2024-03-06T07:40:43;21.00;;;12.70;;
75171;SDS011;63750;52.418;20.742;2024-03-06T07:43:12;20.00;;;12.70;;
75171;SDS011;63750;52.418;20.742;2024-03-06T07:45:40;20.90;;;13.10;;
75171;SDS011;63750;52.418;20.742;2024-03-06T07:48:08;22.50;;;14.10;;
75171;SDS011;63750;52.418;20.742;2024-03-06T07:50:36;23.50;;;14.20;;
75171;SDS011;63750;52.418;20.742;2024-03-06T07:53:05;23.30;;;13.80;;
75171;SDS011;63750;52.418;20.742;2024-03-06T07:55:33;21.90;;;12.00;;
75171;SDS011;63750;52.418;20.742;2024-03-06T07:58:01;19.50;;;12.40;;
75171;SDS011;63750;52.418;20.742;2024-03-06T08:00:29;20.10;;;12.50;;
75171;SDS011;63750;52.418;20.742;2024-03-06T08:02:57;21.50;;;13.20;;
75171;SDS011;63750;52.418;20.742;2024-03-06T08:05:25;19.40;;;11.90;;
75171;SDS011;63750;52.418;20.742;2024-03-06T08:07:54;20.90;;;12.10;;
75171;SDS011;63750;52.418;20.742;2024-03-06T08:10:22;18.00;;;11.20;;
75171;SDS011;63750;52.418;20.742;2024-03-06T08:12:50;25.90;;;14.70;;
75171;SDS011;63750;52.418;20.742;2024-03-06T08:15:18;18.10;;;11.30;;
75171;SDS011;63750;52.418;20.742;2024-03-06T08:17:47;19.30;;;12.00;;
75171;SDS011;63750;52.418;20.742;2024-03-06T08:20:15;21.10;;;13.40;;
75171;SDS011;63750;52.418;20.742;2024-03-06T08:22:44;21.20;;;13.10;;
75171;SDS011;63750;52.418;20.742;2024-03-06T08:25:12;27.60;;;17.30;;
75171;SDS011;63750;52.418;20.742;2024-03-06T08:27:41;24.90;;;14.80;;
75171;SDS011;63750;52.418;20.742;2024-03-06T08:30:10;23.80;;;13.20;;
75171;SDS011;63750;52.418;20.742;2024-03-06T08:32:38;21.80;;;14.00;;
75171;SDS011;63750;52.418;20.742;2024-03-06T08:35:08;21.70;;;13.20;;
75171;SDS011;63750;52.418;20.742;2024-03-06T08:37:37;22.70;;;12.50;;
75171;SDS011;63750;52.418;20.742;2024-03-06T08:40:06;19.50;;;12.70;;
75171;SDS011;63750;52.418;20.742;2024-03-06T08:42:35;26.10;;;16.00;;
75171;SDS011;63750;52.418;20.742;2024-03-06T08:45:04;19.90;;;11.30;;
75171;SDS011;63750;52.418;20.742;2024-03-06T08:47:34;19.00;;;11.40;;
75171;SDS011;63750;52.418;20.742;2024-03-06T08:50:02;18.00;;;10.70;;
75171;SDS011;63750;52.418;20.742;2024-03-06T08:52:31;16.90;;;11.10;;
75171;SDS011;63750;52.418;20.742;2024-03-06T08:54:59;19.30;;;11.20;;
75171;SDS011;63750;52.418;20.742;2024-03-06T08:57:28;17.30;;;11.20;;
75171;SDS011;63750;52.418;20.742;2024-03-06T08:59:56;20.10;;;12.70;;
75171;SDS011;63750;52.418;20.742;2024-03-06T09:02:25;21.90;;;11.70;;
75171;SDS011;63750;52.418;20.742;2024-03-06T09:04:53;16.30;;;11.30;;
75171;SDS011;63750;52.418;20.742;2024-03-06T09:07:22;19.70;;;11.30;;
75171;SDS011;63750;52.418;20.742;2024-03-06T09:09:50;33.80;;;19.20;;
75171;SDS011;63750;52.418;20.742;2024-03-06T09:12:18;16.50;;;11.00;;
75171;SDS011;63750;52.418;20.742;2024-03-06T09:14:47;16.50;;;11.20;;
75171;SDS011;63750;52.418;20.742;2024-03-06T09:17:15;16.40;;;11.00;;
75171;SDS011;63750;52.418;20.742;2024-03-06T09:19:43;16.80;;;10.30;;
75171;SDS011;63750;52.418;20.742;2024-03-06T09:22:11;20.10;;;12.50;;
75171;SDS011;63750;52.418;20.742;2024-03-06T09:24:39;16.50;;;10.50;;
75171;SDS011;63750;52.418;20.742;2024-03-06T09:27:07;18.30;;;11.50;;
75171;SDS011;63750;52.418;20.742;2024-03-06T09:56:58;29.30;;;16.50;;
75171;SDS011;63750;52.418;20.742;2024-03-06T09:59:26;18.20;;;10.80;;
75171;SDS011;63750;52.418;20.742;2024-03-06T10:01:55;17.80;;;11.10;;
75171;SDS011;63750;52.418;20.742;2024-03-06T10:04:24;17.00;;;11.00;;
75171;SDS011;63750;52.418;20.742;2024-03-06T10:06:53;19.00;;;10.90;;
75171;SDS011;63750;52.418;20.742;2024-03-06T10:09:23;18.90;;;10.70;;
75171;SDS011;63750;52.418;20.742;2024-03-06T10:11:52;16.20;;;9.80;;
75171;SDS011;63750;52.418;20.742;2024-03-06T10:14:20;15.90;;;10.20;;
75171;SDS011;63750;52.418;20.742;2024-03-06T10:16:52;16.90;;;10.50;;
75171;SDS011;63750;52.418;20.742;2024-03-06T10:19:22;16.30;;;10.30;;
75171;SDS011;63750;52.418;20.742;2024-03-06T10:21:51;17.50;;;10.70;;
75171;SDS011;63750;52.418;20.742;2024-03-06T10:24:20;16.50;;;10.90;;
75171;SDS011;63750;52.418;20.742;2024-03-06T10:26:49;16.20;;;9.80;;
75171;SDS011;63750;52.418;20.742;2024-03-06T10:29:18;17.50;;;10.40;;
75171;SDS011;63750;52.418;20.742;2024-03-06T10:31:50;18.40;;;10.40;;
75171;SDS011;63750;52.418;20.742;2024-03-06T10:34:19;16.20;;;10.20;;
75171;SDS011;63750;52.418;20.742;2024-03-06T10:36:49;16.80;;;9.70;;
75171;SDS011;63750;52.418;20.742;2024-03-06T10:39:22;16.40;;;10.50;;
75171;SDS011;63750;52.418;20.742;2024-03-06T10:41:51;14.10;;;8.80;;
75171;SDS011;63750;52.418;20.742;2024-03-06T10:44:21;16.00;;;9.80;;
75171;SDS011;63750;52.418;20.742;2024-03-06T10:46:54;14.50;;;9.00;;
75171;SDS011;63750;52.418;20.742;2024-03-06T10:49:25;16.50;;;8.30;;
75171;SDS011;63750;52.418;20.742;2024-03-06T10:51:54;14.30;;;8.20;;
75171;SDS011;63750;52.418;20.742;2024-03-06T10:56:54;12.80;;;8.30;;
75171;SDS011;63750;52.418;20.742;2024-03-06T10:59:24;12.70;;;8.10;;
75171;SDS011;63750;52.418;20.742;2024-03-06T11:01:53;9.70;;;7.50;;
75171;SDS011;63750;52.418;20.742;2024-03-06T11:04:22;12.40;;;7.10;;
75171;SDS011;63750;52.418;20.742;2024-03-06T11:06:52;13.00;;;7.80;;
75171;SDS011;63750;52.418;20.742;2024-03-06T11:09:21;9.60;;;7.30;;
75171;SDS011;63750;52.418;20.742;2024-03-06T11:11:49;13.30;;;7.80;;
75171;SDS011;63750;52.418;20.742;2024-03-06T11:14:18;12.60;;;7.90;;
75171;SDS011;63750;52.418;20.742;2024-03-06T11:16:57;10.80;;;7.40;;
75171;SDS011;63750;52.418;20.742;2024-03-06T11:19:28;12.20;;;7.60;;
75171;SDS011;63750;52.418;20.742;2024-03-06T11:21:56;10.50;;;7.20;;
75171;SDS011;63750;52.418;20.742;2024-03-06T11:24:25;10.60;;;7.20;;
75171;SDS011;63750;52.418;20.742;2024-03-06T11:27:00;11.10;;;7.10;;
75171;SDS011;63750;52.418;20.742;2024-03-06T11:29:32;11.80;;;6.60;;
75171;SDS011;63750;52.418;20.742;2024-03-06T11:32:32;10.20;;;7.30;;
75171;SDS011;63750;52.418;20.742;2024-03-06T11:35:00;10.60;;;7.30;;
75171;SDS011;63750;52.418;20.742;2024-03-06T11:37:28;9.70;;;6.80;;
75171;SDS011;63750;52.418;20.742;2024-03-06T11:40:00;11.00;;;7.10;;
75171;SDS011;63750;52.418;20.742;2024-03-06T11:42:35;15.40;;;7.20;;
75171;SDS011;63750;52.418;20.742;2024-03-06T11:45:13;9.30;;;6.30;;
75171;SDS011;63750;52.418;20.742;2024-03-06T11:47:57;8.40;;;6.50;;
75171;SDS011;63750;52.418;20.742;2024-03-06T11:50:27;12.80;;;6.90;;
75171;SDS011;63750;52.418;20.742;2024-03-06T11:52:56;9.10;;;6.30;;
75171;SDS011;63750;52.418;20.742;2024-03-06T11:55:24;9.00;;;7.00;;
75171;SDS011;63750;52.418;20.742;2024-03-06T11:57:52;11.20;;;6.40;;
75171;SDS011;63750;52.418;20.742;2024-03-06T12:00:22;10.20;;;7.30;;
75171;SDS011;63750;52.418;20.742;2024-03-06T12:02:50;9.30;;;6.20;;
75171;SDS011;63750;52.418;20.742;2024-03-06T12:05:19;9.90;;;6.60;;
75171;SDS011;63750;52.418;20.742;2024-03-06T12:07:49;9.10;;;6.60;;
75171;SDS011;63750;52.418;20.742;2024-03-06T12:10:17;9.00;;;6.20;;
75171;SDS011;63750;52.418;20.742;2024-03-06T12:12:46;11.10;;;6.50;;
75171;SDS011;63750;52.418;20.742;2024-03-06T12:15:14;8.80;;;6.30;;
75171;SDS011;63750;52.418;20.742;2024-03-06T12:17:43;7.80;;;5.40;;
75171;SDS011;63750;52.418;20.742;2024-03-06T12:20:12;9.20;;;6.30;;
75171;SDS011;63750;52.418;20.742;2024-03-06T12:22:44;9.00;;;6.30;;
75171;SDS011;63750;52.418;20.742;2024-03-06T12:25:19;9.10;;;6.20;;
75171;SDS011;63750;52.418;20.742;2024-03-06T12:27:48;7.40;;;6.00;;
75171;SDS011;63750;52.418;20.742;2024-03-06T12:30:17;9.00;;;6.30;;
75171;SDS011;63750;52.418;20.742;2024-03-06T12:32:55;9.20;;;6.50;;
75171;SDS011;63750;52.418;20.742;2024-03-06T12:35:25;9.80;;;6.40;;
75171;SDS011;63750;52.418;20.742;2024-03-06T12:37:54;7.90;;;6.30;;
75171;SDS011;63750;52.418;20.742;2024-03-06T12:40:22;8.40;;;6.30;;
75171;SDS011;63750;52.418;20.742;2024-03-06T12:42:50;9.50;;;6.60;;
75171;SDS011;63750;52.418;20.742;2024-03-06T12:45:19;8.50;;;6.50;;
75171;SDS011;63750;52.418;20.742;2024-03-06T12:47:48;9.90;;;6.40;;
75171;SDS011;63750;52.418;20.742;2024-03-06T12:50:16;8.70;;;6.30;;
75171;SDS011;63750;52.418;20.742;2024-03-06T12:52:46;12.10;;;7.10;;
75171;SDS011;63750;52.418;20.742;2024-03-06T12:55:14;9.20;;;6.20;;
75171;SDS011;63750;52.418;20.742;2024-03-06T12:57:42;9.00;;;6.50;;
75171;SDS011;63750;52.418;20.742;2024-03-06T13:00:12;9.70;;;6.30;;
75171;SDS011;63750;52.418;20.742;2024-03-06T13:02:41;9.70;;;6.50;;
75171;SDS011;63750;52.418;20.742;2024-03-06T13:05:09;9.80;;;6.60;;
75171;SDS011;63750;52.418;20.742;2024-03-06T13:07:38;9.80;;;6.80;;
75171;SDS011;63750;52.418;20.742;2024-03-06T13:10:07;10.80;;;7.40;;
75171;SDS011;63750;52.418;20.742;2024-03-06T13:12:36;10.10;;;7.10;;
75171;SDS011;63750;52.418;20.742;2024-03-06T13:15:05;10.50;;;6.90;;
75171;SDS011;63750;52.418;20.742;2024-03-06T13:17:34;10.80;;;6.90;;
75171;SDS011;63750;52.418;20.742;2024-03-06T13:20:02;11.10;;;7.50;;
75171;SDS011;63750;52.418;20.742;2024-03-06T13:22:31;11.60;;;7.30;;
75171;SDS011;63750;52.418;20.742;2024-03-06T13:24:59;12.90;;;7.30;;
75171;SDS011;63750;52.418;20.742;2024-03-06T13:27:27;10.10;;;6.80;;
75171;SDS011;63750;52.418;20.742;2024-03-06T13:29:58;11.20;;;7.40;;
75171;SDS011;63750;52.418;20.742;2024-03-06T13:32:26;11.10;;;7.20;;
75171;SDS011;63750;52.418;20.742;2024-03-06T13:34:54;10.20;;;6.50;;
75171;SDS011;63750;52.418;20.742;2024-03-06T13:37:22;9.50;;;6.80;;
75171;SDS011;63750;52.418;20.742;2024-03-06T13:39:51;11.10;;;7.30;;
75171;SDS011;63750;52.418;20.742;2024-03-06T13:42:19;10.90;;;7.10;;
75171;SDS011;63750;52.418;20.742;2024-03-06T13:44:47;9.80;;;7.30;;
75171;SDS011;63750;52.418;20.742;2024-03-06T13:47:15;11.30;;;6.90;;
75171;SDS011;63750;52.418;20.742;2024-03-06T13:49:44;8.70;;;7.20;;
75171;SDS011;63750;52.418;20.742;2024-03-06T13:52:12;9.20;;;6.90;;
75171;SDS011;63750;52.418;20.742;2024-03-06T13:54:41;13.20;;;7.50;;
75171;SDS011;63750;52.418;20.742;2024-03-06T13:57:10;10.00;;;7.00;;
75171;SDS011;63750;52.418;20.742;2024-03-06T13:59:38;10.70;;;7.20;;
75171;SDS011;63750;52.418;20.742;2024-03-06T14:02:07;11.30;;;7.50;;
75171;SDS011;63750;52.418;20.742;2024-03-06T14:04:35;9.80;;;7.10;;
75171;SDS011;63750;52.418;20.742;2024-03-06T14:07:04;10.40;;;7.10;;
75171;SDS011;63750;52.418;20.742;2024-03-06T14:09:32;9.60;;;6.90;;
75171;SDS011;63750;52.418;20.742;2024-03-06T14:12:00;10.00;;;7.30;;
75171;SDS011;63750;52.418;20.742;2024-03-06T14:14:28;9.90;;;6.50;;
75171;SDS011;63750;52.418;20.742;2024-03-06T14:16:56;10.20;;;6.80;;
75171;SDS011;63750;52.418;20.742;2024-03-06T14:19:25;8.30;;;6.40;;
75171;SDS011;63750;52.418;20.742;2024-03-06T14:21:53;8.80;;;6.20;;
75171;SDS011;63750;52.418;20.742;2024-03-06T14:24:21;11.80;;;5.90;;
75171;SDS011;63750;52.418;20.742;2024-03-06T14:26:49;9.70;;;6.20;;
75171;SDS011;63750;52.418;20.742;2024-03-06T14:29:17;11.10;;;6.00;;
75171;SDS011;63750;52.418;20.742;2024-03-06T14:31:45;8.00;;;5.70;;
75171;SDS011;63750;52.418;20.742;2024-03-06T14:34:14;10.10;;;6.20;;
75171;SDS011;63750;52.418;20.742;2024-03-06T14:36:42;11.20;;;6.90;;
75171;SDS011;63750;52.418;20.742;2024-03-06T14:39:10;10.30;;;6.50;;
75171;SDS011;63750;52.418;20.742;2024-03-06T14:41:41;9.00;;;6.10;;
75171;SDS011;63750;52.418;20.742;2024-03-06T14:44:09;11.10;;;5.90;;
75171;SDS011;63750;52.418;20.742;2024-03-06T14:46:37;8.20;;;5.80;;
75171;SDS011;63750;52.418;20.742;2024-03-06T14:49:05;8.60;;;6.10;;
75171;SDS011;63750;52.418;20.742;2024-03-06T14:51:34;9.50;;;5.70;;